Time;durP1;ratioP1;P1;durP2;ratioP2;P2;SDS_P1;SDS_P2;PMS_P1;PMS_P2;Temp;Humidity;BMP_temperature;BMP_pressure;BME280_temperature;BME280_humidity;BME280_pressure;Samples;Min_cycle;Max_cycle;Signal;HPM_P1;HPM_P2
2022/06/19 00:01:29;;;;;;;0.10;0.10;;;15.70;99.90;;;;;;5042685;28;20480;-84
2022/06/19 00:03:55;;;;;;;0.10;0.10;;;15.80;99.90;;;;;;5043413;28;20473;-84
2022/06/19 00:06:22;;;;;;;0.10;0.10;;;15.80;99.90;;;;;;5064850;28;20436;-83
2022/06/19 00:08:48;;;;;;;0.10;0.10;;;15.80;99.90;;;;;;5042828;28;20441;-84
2022/06/19 00:11:18;;;;;;;0.10;0.10;;;15.90;99.90;;;;;;5044216;28;20443;-83
2022/06/19 00:13:44;;;;;;;0.10;0.10;;;15.90;99.90;;;;;;5035167;28;20277;-83
2022/06/19 00:16:10;;;;;;;0.10;0.10;;;15.60;99.90;;;;;;5046813;28;20479;-84
2022/06/19 00:18:38;;;;;;;0.10;0.10;;;15.50;99.90;;;;;;5040975;28;20970;-84
2022/06/19 00:21:04;;;;;;;0.10;0.10;;;15.50;99.90;;;;;;5054575;28;20440;-84
2022/06/19 00:23:30;;;;;;;0.10;0.10;;;15.70;99.90;;;;;;5048227;28;20511;-84
2022/06/19 00:25:55;;;;;;;0.10;0.10;;;15.80;99.90;;;;;;5044208;28;20438;-84
2022/06/19 00:28:21;;;;;;;0.10;0.10;;;15.80;99.90;;;;;;5062977;28;20194;-84
2022/06/19 00:30:46;;;;;;;0.10;0.10;;;15.80;99.90;;;;;;5069158;28;20277;-84
2022/06/19 00:33:12;;;;;;;0.10;0.10;;;15.60;99.90;;;;;;5046128;28;20261;-84
2022/06/19 00:35:37;;;;;;;0.10;0.10;;;15.60;99.90;;;;;;5048810;28;20701;-84
2022/06/19 00:38:03;;;;;;;0.10;0.10;;;15.60;99.90;;;;;;5044773;28;20202;-84
2022/06/19 00:40:30;;;;;;;0.10;0.10;;;15.70;99.90;;;;;;5055664;28;20286;-84
2022/06/19 00:42:56;;;;;;;0.10;0.10;;;15.60;99.90;;;;;;5034368;28;20729;-83
2022/06/19 00:45:49;;;;;;;0.10;0.10;;;15.70;99.90;;;;;;5061238;28;20481;-84
2022/06/19 00:48:37;;;;;;;0.10;0.10;;;15.50;99.90;;;;;;5034840;28;20449;-83
2022/06/19 00:51:05;;;;;;;0.10;0.10;;;15.40;99.90;;;;;;5047962;28;20798;-83
2022/06/19 00:53:40;;;;;;;0.10;0.10;;;15.50;99.90;;;;;;5048515;28;20967;-83
2022/06/19 00:56:11;;;;;;;0.10;0.10;;;15.60;99.90;;;;;;5038629;28;20499;-84
2022/06/19 00:58:40;;;;;;;0.10;0.10;;;15.60;99.90;;;;;;5051580;28;20459;-83
2022/06/19 01:01:09;;;;;;;0.10;0.10;;;15.70;99.90;;;;;;5042625;28;20479;-83
2022/06/19 01:03:57;;;;;;;0.10;0.10;;;15.80;99.90;;;;;;5051432;28;20895;-83
2022/06/19 01:06:24;;;;;;;0.10;0.10;;;15.60;99.90;;;;;;5050522;28;20469;-83
2022/06/19 01:08:50;;;;;;;0.10;0.10;;;15.70;99.90;;;;;;5043090;28;21376;-83
2022/06/19 01:11:18;;;;;;;0.10;0.10;;;15.70;99.90;;;;;;5045437;28;20489;-83
2022/06/19 01:13:44;;;;;;;0.10;0.10;;;15.70;99.90;;;;;;5042076;28;20437;-83
2022/06/19 01:16:10;;;;;;;0.10;0.10;;;15.70;99.90;;;;;;5042098;28;20444;-83
2022/06/19 01:18:38;;;;;;;0.10;0.10;;;15.70;99.90;;;;;;5038696;28;20448;-83
2022/06/19 01:21:19;;;;;;;0.10;0.10;;;15.70;99.90;;;;;;5038425;28;20553;-83
2022/06/19 01:24:01;;;;;;;0.10;0.10;;;15.70;99.90;;;;;;5047738;28;20495;-84
2022/06/19 01:26:30;;;;;;;0.10;0.10;;;15.70;99.90;;;;;;5048213;28;20444;-83
2022/06/19 01:28:56;;;;;;;0.10;0.10;;;15.60;99.90;;;;;;5046996;28;20496;-83
2022/06/19 01:31:32;;;;;;;0.10;0.10;;;15.60;99.90;;;;;;5041506;28;20454;-83
2022/06/19 01:34:26;;;;;;;0.10;0.10;;;15.80;99.90;;;;;;5042123;28;20181;-83
2022/06/19 01:37:00;;;;;;;0.10;0.10;;;15.80;99.90;;;;;;5055597;28;20429;-83
2022/06/19 01:39:29;;;;;;;0.10;0.10;;;15.70;99.90;;;;;;5043397;28;20484;-83
2022/06/19 01:41:55;;;;;;;0.10;0.10;;;15.60;99.90;;;;;;5041378;28;20821;-83
2022/06/19 01:44:20;;;;;;;0.10;0.10;;;15.60;99.90;;;;;;5043615;28;20484;-83
2022/06/19 01:46:46;;;;;;;0.10;0.10;;;15.70;99.90;;;;;;5042105;28;20193;-83
2022/06/19 01:49:13;;;;;;;0.10;0.10;;;15.60;99.90;;;;;;5048437;28;20235;-83
2022/06/19 01:51:39;;;;;;;0.10;0.10;;;15.60;99.90;;;;;;5053193;28;20471;-83
2022/06/19 01:54:33;;;;;;;0.10;0.10;;;15.60;99.90;;;;;;5050628;28;20861;-83
2022/06/19 01:56:59;;;;;;;0.10;0.10;;;15.60;99.90;;;;;;5054927;28;20194;-83
2022/06/19 01:59:28;;;;;;;0.10;0.10;;;15.60;99.90;;;;;;5049180;28;20468;-82
2022/06/19 02:01:54;;;;;;;0.10;0.10;;;15.60;99.90;;;;;;5046975;28;20190;-83
2022/06/19 02:04:21;;;;;;;0.10;0.10;;;15.50;99.90;;;;;;5048345;28;20538;-83
2022/06/19 02:06:51;;;;;;;0.10;0.10;;;15.50;99.90;;;;;;5052139;28;20497;-83
2022/06/19 02:09:20;;;;;;;0.10;0.10;;;15.50;99.90;;;;;;5049882;28;20456;-83
2022/06/19 02:11:46;;;;;;;0.10;0.10;;;15.40;99.90;;;;;;5040444;28;20462;-83
2022/06/19 02:14:13;;;;;;;0.10;0.10;;;15.50;99.90;;;;;;5058657;28;20480;-83
2022/06/19 02:16:41;;;;;;;0.10;0.10;;;15.50;99.90;;;;;;5044506;28;20774;-83
2022/06/19 02:19:07;;;;;;;0.10;0.10;;;15.50;99.90;;;;;;5049564;28;20503;-82
2022/06/19 02:21:37;;;;;;;0.10;0.10;;;15.50;99.90;;;;;;5048062;28;20472;-83
2022/06/19 02:24:05;;;;;;;0.10;0.10;;;15.40;99.90;;;;;;5048781;28;20484;-83
2022/06/19 02:26:31;;;;;;;0.10;0.10;;;15.50;99.90;;;;;;5042929;28;20437;-83
2022/06/19 02:28:57;;;;;;;0.10;0.10;;;15.40;99.90;;;;;;5041152;28;20457;-83
2022/06/19 02:31:22;;;;;;;0.10;0.10;;;15.50;99.90;;;;;;5037205;28;20211;-83
2022/06/19 02:33:55;;;;;;;0.10;0.10;;;15.50;99.90;;;;;;5044759;28;20240;-83
2022/06/19 02:36:42;;;;;;;0.10;0.10;;;15.60;99.90;;;;;;5051417;28;20221;-83
2022/06/19 02:39:45;;;;;;;0.10;0.10;;;15.50;99.90;;;;;;5045192;28;20451;-83
2022/06/19 02:42:19;;;;;;;0.10;0.10;;;15.50;99.90;;;;;;5047155;28;20480;-82
2022/06/19 02:44:50;;;;;;;0.10;0.10;;;15.60;99.90;;;;;;5044105;28;21103;-83
2022/06/19 02:47:16;;;;;;;0.10;0.10;;;15.60;99.90;;;;;;5056399;28;20939;-83
2022/06/19 02:49:42;;;;;;;0.10;0.10;;;15.50;99.90;;;;;;5061864;28;20448;-83
2022/06/19 02:52:09;;;;;;;0.10;0.10;;;15.60;99.90;;;;;;5050663;28;20185;-83
2022/06/19 02:54:35;;;;;;;0.10;0.10;;;15.50;99.90;;;;;;5049827;28;20452;-82
2022/06/19 02:57:01;;;;;;;0.10;0.10;;;15.50;99.90;;;;;;5056232;28;20516;-83
2022/06/19 02:59:27;;;;;;;0.10;0.10;;;15.50;99.90;;;;;;5048696;28;20197;-83
2022/06/19 03:01:52;;;;;;;0.10;0.10;;;15.50;99.90;;;;;;5048254;28;20985;-83
2022/06/19 03:04:23;;;;;;;0.10;0.10;;;15.40;99.90;;;;;;5039425;28;20223;-82
2022/06/19 03:06:49;;;;;;;0.10;0.10;;;15.40;99.90;;;;;;5036472;28;20229;-82
2022/06/19 03:09:14;;;;;;;0.10;0.10;;;15.30;99.90;;;;;;5040663;28;20936;-83
2022/06/19 03:11:40;;;;;;;0.10;0.10;;;15.30;99.90;;;;;;5043280;28;20285;-83
2022/06/19 03:14:06;;;;;;;0.10;0.10;;;15.40;99.90;;;;;;5043885;28;20206;-83
2022/06/19 03:16:32;;;;;;;0.10;0.10;;;15.20;99.90;;;;;;5045376;28;20947;-82
2022/06/19 03:18:58;;;;;;;0.10;0.10;;;15.20;99.90;;;;;;5051007;28;20453;-83
2022/06/19 03:21:24;;;;;;;0.10;0.10;;;15.30;99.90;;;;;;5049357;28;20968;-82
2022/06/19 03:23:50;;;;;;;0.10;0.10;;;15.30;99.90;;;;;;5046934;28;20487;-82
2022/06/19 03:26:15;;;;;;;0.10;0.10;;;15.00;99.90;;;;;;5041594;28;20187;-83
2022/06/19 03:28:41;;;;;;;0.10;0.10;;;15.00;99.90;;;;;;5042033;28;20184;-83
2022/06/19 03:31:06;;;;;;;0.10;0.10;;;15.10;99.90;;;;;;5048926;28;20245;-82
2022/06/19 03:33:32;;;;;;;0.10;0.10;;;15.20;99.90;;;;;;5051816;28;20192;-82
2022/06/19 03:35:57;;;;;;;0.10;0.10;;;15.20;99.90;;;;;;5051423;28;20293;-83
2022/06/19 03:38:23;;;;;;;0.10;0.10;;;15.10;99.90;;;;;;5051684;28;20261;-83
2022/06/19 03:40:49;;;;;;;0.10;0.10;;;15.10;99.90;;;;;;5061961;28;20608;-82
2022/06/19 03:43:14;;;;;;;0.10;0.10;;;15.10;99.90;;;;;;5048426;28;20206;-82
2022/06/19 03:45:40;;;;;;;0.10;0.10;;;15.20;99.90;;;;;;5036414;28;20184;-83
2022/06/19 03:48:06;;;;;;;0.10;0.10;;;15.30;99.90;;;;;;5048936;28;20186;-83
2022/06/19 03:50:31;;;;;;;0.10;0.10;;;15.30;99.90;;;;;;5050865;28;20214;-83
2022/06/19 03:52:57;;;;;;;0.10;0.10;;;15.30;99.90;;;;;;5056799;28;20436;-83
2022/06/19 03:55:22;;;;;;;0.10;0.10;;;15.30;99.90;;;;;;5047699;28;20859;-83
2022/06/19 03:57:48;;;;;;;0.10;0.10;;;15.10;99.90;;;;;;5049024;28;20195;-83
2022/06/19 04:00:18;;;;;;;0.10;0.10;;;15.10;99.90;;;;;;5044790;28;20237;-83
2022/06/19 04:02:44;;;;;;;0.10;0.10;;;15.10;99.90;;;;;;5051126;28;20592;-83
2022/06/19 04:05:14;;;;;;;0.10;0.10;;;15.20;99.90;;;;;;5042908;28;20446;-84
2022/06/19 04:07:47;;;;;;;0.10;0.10;;;15.20;99.90;;;;;;5048432;28;20244;-83
2022/06/19 04:10:15;;;;;;;0.10;0.10;;;15.20;99.90;;;;;;5041866;28;20855;-83
2022/06/19 04:12:41;;;;;;;0.10;0.10;;;15.20;99.90;;;;;;5047848;28;20446;-83
2022/06/19 04:15:09;;;;;;;0.10;0.10;;;15.30;99.90;;;;;;5034079;28;20544;-83
2022/06/19 04:17:35;;;;;;;0.10;0.10;;;15.20;99.90;;;;;;5043163;28;20928;-83
2022/06/19 04:20:00;;;;;;;0.10;0.10;;;15.10;99.90;;;;;;5060286;28;20512;-83
2022/06/19 04:22:26;;;;;;;0.20;0.10;;;15.20;99.90;;;;;;5055951;28;20190;-83
2022/06/19 04:24:51;;;;;;;0.10;0.10;;;15.20;99.90;;;;;;5045106;28;20904;-84
2022/06/19 04:27:17;;;;;;;0.10;0.10;;;15.10;99.90;;;;;;5045325;28;20193;-84
2022/06/19 04:29:42;;;;;;;0.10;0.10;;;15.00;99.90;;;;;;5048522;28;20210;-83
2022/06/19 04:32:08;;;;;;;0.10;0.10;;;14.90;99.90;;;;;;5057416;28;20236;-84
2022/06/19 04:34:33;;;;;;;0.10;0.10;;;14.80;99.90;;;;;;5049293;28;20893;-83
2022/06/19 04:36:59;;;;;;;0.10;0.10;;;14.80;99.90;;;;;;5042073;28;20240;-83
2022/06/19 04:39:24;;;;;;;0.10;0.10;;;14.90;99.90;;;;;;5054597;28;20237;-83
2022/06/19 04:41:50;;;;;;;0.10;0.10;;;14.90;99.90;;;;;;5049076;28;20199;-82
2022/06/19 04:44:17;;;;;;;0.10;0.10;;;14.90;99.90;;;;;;5044505;28;20226;-84
2022/06/19 04:46:43;;;;;;;0.10;0.10;;;14.90;99.90;;;;;;5050725;28;20199;-83
2022/06/19 04:49:10;;;;;;;0.10;0.10;;;14.90;99.90;;;;;;5045386;28;20527;-82
2022/06/19 04:51:36;;;;;;;0.10;0.10;;;15.00;99.90;;;;;;5049822;28;20465;-82
2022/06/19 04:54:01;;;;;;;0.10;0.10;;;15.00;99.90;;;;;;5049238;28;20526;-83
2022/06/19 04:56:27;;;;;;;0.10;0.10;;;15.00;99.90;;;;;;5040409;28;20191;-82
2022/06/19 04:58:53;;;;;;;0.10;0.10;;;14.90;99.90;;;;;;5047764;28;20788;-83
2022/06/19 05:01:23;;;;;;;0.10;0.10;;;14.80;99.90;;;;;;5041013;28;20234;-83
2022/06/19 05:03:50;;;;;;;0.10;0.10;;;14.70;99.90;;;;;;5048953;28;20222;-82
2022/06/19 05:06:15;;;;;;;0.10;0.10;;;14.80;99.90;;;;;;5046866;28;20441;-83
2022/06/19 05:08:41;;;;;;;0.10;0.10;;;14.70;99.90;;;;;;5043092;28;20968;-83
2022/06/19 05:11:09;;;;;;;0.10;0.10;;;14.80;99.90;;;;;;5049518;28;20309;-83
2022/06/19 05:13:35;;;;;;;0.10;0.10;;;14.90;99.90;;;;;;5048337;28;20274;-83
2022/06/19 05:16:06;;;;;;;0.10;0.10;;;14.80;99.90;;;;;;5051596;28;20528;-82
2022/06/19 05:18:32;;;;;;;0.10;0.10;;;14.70;99.90;;;;;;5054117;28;20186;-83
2022/06/19 05:21:01;;;;;;;0.10;0.10;;;14.60;99.90;;;;;;5061716;28;20436;-85
2022/06/19 05:23:28;;;;;;;0.10;0.10;;;14.30;99.90;;;;;;5064373;28;20959;-85
2022/06/19 05:26:02;;;;;;;0.10;0.10;;;14.20;99.90;;;;;;5047538;28;20462;-85
2022/06/19 05:28:30;;;;;;;0.10;0.10;;;14.20;99.90;;;;;;5058661;28;20436;-85
2022/06/19 05:30:57;;;;;;;0.10;0.10;;;14.10;99.90;;;;;;5066749;28;21024;-85
2022/06/19 05:33:22;;;;;;;0.10;0.10;;;14.10;99.90;;;;;;5060185;28;20573;-86
2022/06/19 05:35:48;;;;;;;0.10;0.10;;;14.00;99.90;;;;;;5043684;28;20539;-86
2022/06/19 05:38:13;;;;;;;0.10;0.10;;;13.90;99.90;;;;;;5045206;28;20198;-84
2022/06/19 05:40:40;;;;;;;0.10;0.10;;;13.80;99.90;;;;;;5050602;28;20193;-85
2022/06/19 05:43:06;;;;;;;0.10;0.10;;;13.70;99.90;;;;;;5066528;28;20681;-87
2022/06/19 05:45:32;;;;;;;0.10;0.10;;;13.80;99.90;;;;;;5031000;28;20426;-86
2022/06/19 05:47:57;;;;;;;0.10;0.10;;;13.80;99.90;;;;;;5050160;28;21090;-86
2022/06/19 05:50:23;;;;;;;0.10;0.10;;;13.80;99.90;;;;;;5047611;28;20190;-86
2022/06/19 05:52:48;;;;;;;0.10;0.10;;;13.80;99.90;;;;;;5059053;28;20734;-86
2022/06/19 05:55:14;;;;;;;0.10;0.10;;;13.80;99.90;;;;;;5041056;28;20608;-85
2022/06/19 05:57:39;;;;;;;0.10;0.10;;;13.70;99.90;;;;;;5042087;28;20181;-86
2022/06/19 06:00:08;;;;;;;0.10;0.10;;;13.70;99.90;;;;;;5039547;28;20584;-86
2022/06/19 06:02:34;;;;;;;0.10;0.10;;;13.50;99.90;;;;;;5046226;28;20279;-86
2022/06/19 06:05:00;;;;;;;0.10;0.10;;;13.50;99.90;;;;;;5035017;28;20584;-86
2022/06/19 06:07:26;;;;;;;0.10;0.10;;;13.10;99.90;;;;;;5039836;28;20449;-85
2022/06/19 06:09:51;;;;;;;0.10;0.10;;;12.80;99.90;;;;;;5044401;28;20201;-86
2022/06/19 06:12:18;;;;;;;0.20;0.20;;;12.90;99.90;;;;;;5048317;28;20190;-85
2022/06/19 06:14:43;;;;;;;0.20;0.20;;;13.20;99.90;;;;;;5045572;28;20190;-85
2022/06/19 06:17:09;;;;;;;0.13;0.13;;;13.20;99.90;;;;;;5042469;28;20452;-84
2022/06/19 06:19:35;;;;;;;0.10;0.10;;;13.30;99.90;;;;;;5049057;28;20222;-84
2022/06/19 06:22:02;;;;;;;0.10;0.10;;;13.30;99.90;;;;;;5049969;28;20183;-84
2022/06/19 06:24:28;;;;;;;0.10;0.10;;;13.30;99.90;;;;;;5044645;28;20237;-85
2022/06/19 06:26:53;;;;;;;0.10;0.10;;;13.50;99.90;;;;;;5047331;28;20444;-85
2022/06/19 06:29:20;;;;;;;0.10;0.10;;;13.50;99.90;;;;;;5046661;28;20273;-85
2022/06/19 06:31:46;;;;;;;0.10;0.10;;;13.60;99.90;;;;;;5052723;28;20232;-85
2022/06/19 06:34:11;;;;;;;0.10;0.10;;;13.70;99.90;;;;;;5053862;28;20861;-86
2022/06/19 06:36:37;;;;;;;0.10;0.10;;;13.70;99.90;;;;;;5052685;28;20273;-84
2022/06/19 06:39:02;;;;;;;0.10;0.10;;;13.70;99.90;;;;;;5049315;28;20178;-84
2022/06/19 06:41:28;;;;;;;0.10;0.10;;;13.80;99.90;;;;;;5048434;28;20228;-85
2022/06/19 06:43:54;;;;;;;0.10;0.10;;;13.80;99.90;;;;;;5052566;28;20899;-85
2022/06/19 06:46:23;;;;;;;0.10;0.10;;;13.80;99.90;;;;;;5045507;28;20218;-85
2022/06/19 06:48:50;;;;;;;0.10;0.10;;;13.80;99.90;;;;;;5056259;28;20445;-86
2022/06/19 06:51:19;;;;;;;0.10;0.10;;;13.90;99.90;;;;;;5048693;28;20932;-87
2022/06/19 06:53:44;;;;;;;0.10;0.10;;;14.00;99.90;;;;;;5060262;28;20925;-87
2022/06/19 06:56:10;;;;;;;0.10;0.10;;;14.10;99.90;;;;;;5054657;28;20459;-85
2022/06/19 06:58:38;;;;;;;0.10;0.10;;;14.20;99.90;;;;;;5041008;28;20198;-87
2022/06/19 07:01:08;;;;;;;0.10;0.10;;;14.30;99.90;;;;;;5043419;28;20568;-86
2022/06/19 07:03:34;;;;;;;0.10;0.10;;;14.30;99.90;;;;;;5041274;28;20476;-87
2022/06/19 07:06:00;;;;;;;0.10;0.10;;;14.30;99.90;;;;;;5055579;28;20499;-86
2022/06/19 07:08:26;;;;;;;0.10;0.10;;;14.40;99.90;;;;;;5060301;28;20209;-86
2022/06/19 07:10:51;;;;;;;0.10;0.10;;;14.20;99.90;;;;;;5045942;28;20449;-87
2022/06/19 07:13:18;;;;;;;0.10;0.10;;;14.30;99.90;;;;;;5049839;28;20312;-86
2022/06/19 07:15:44;;;;;;;0.10;0.10;;;14.10;99.90;;;;;;5038665;28;20187;-85
2022/06/19 07:18:11;;;;;;;0.10;0.10;;;14.10;99.90;;;;;;5035798;28;20448;-86
2022/06/19 07:20:36;;;;;;;0.10;0.10;;;14.00;99.90;;;;;;5037652;28;20309;-85
2022/06/19 07:23:04;;;;;;;0.10;0.10;;;14.30;99.90;;;;;;5045942;28;20931;-86
2022/06/19 07:25:31;;;;;;;0.10;0.10;;;14.50;99.90;;;;;;5049027;28;20190;-85
2022/06/19 07:27:59;;;;;;;0.10;0.10;;;14.60;99.90;;;;;;5051644;28;20444;-87
2022/06/19 07:30:26;;;;;;;0.10;0.10;;;14.70;99.90;;;;;;5050329;28;20959;-86
2022/06/19 07:32:52;;;;;;;0.10;0.10;;;14.80;99.90;;;;;;5084891;28;20443;-87
2022/06/19 07:35:18;;;;;;;0.10;0.10;;;14.90;99.90;;;;;;5048250;28;20853;-86
2022/06/19 07:37:44;;;;;;;0.10;0.10;;;15.00;99.90;;;;;;5058691;28;20440;-85
2022/06/19 07:40:13;;;;;;;0.10;0.10;;;15.00;99.90;;;;;;5046126;28;20480;-85
2022/06/19 07:42:39;;;;;;;0.10;0.10;;;15.00;99.90;;;;;;5046279;28;20631;-86
2022/06/19 07:45:05;;;;;;;0.10;0.10;;;15.20;99.90;;;;;;5042858;28;20569;-85
2022/06/19 07:50:16;;;;;;;0.10;0.10;;;15.30;99.90;;;;;;5040789;28;20209;-85
2022/06/19 07:52:44;;;;;;;0.10;0.10;;;15.20;99.90;;;;;;5052924;28;20798;-86
2022/06/19 07:55:13;;;;;;;0.10;0.10;;;15.10;99.90;;;;;;5050928;28;20427;-86
2022/06/19 07:57:39;;;;;;;0.10;0.10;;;15.00;99.90;;;;;;5058193;28;20447;-85
2022/06/19 08:00:09;;;;;;;0.10;0.10;;;14.90;99.90;;;;;;5067576;28;20818;-85
2022/06/19 08:02:34;;;;;;;0.10;0.10;;;14.90;99.90;;;;;;5051610;28;20550;-86
2022/06/19 08:05:00;;;;;;;0.10;0.10;;;15.00;99.90;;;;;;5056804;28;20481;-86
2022/06/19 08:07:25;;;;;;;0.10;0.10;;;15.00;99.90;;;;;;5051944;28;20183;-86
2022/06/19 08:09:51;;;;;;;0.10;0.10;;;15.00;99.90;;;;;;5059707;28;20182;-85
2022/06/19 08:12:17;;;;;;;0.10;0.10;;;15.00;99.90;;;;;;5051432;28;20199;-87
2022/06/19 08:14:42;;;;;;;0.10;0.10;;;15.00;99.90;;;;;;5051358;28;20588;-85
2022/06/19 08:17:08;;;;;;;0.10;0.10;;;15.00;99.90;;;;;;5049490;28;20281;-85
2022/06/19 08:19:34;;;;;;;0.10;0.10;;;14.90;99.90;;;;;;5050646;28;20191;-85
2022/06/19 08:21:59;;;;;;;0.10;0.10;;;15.00;99.90;;;;;;5034371;28;20453;-86
2022/06/19 08:24:25;;;;;;;0.10;0.10;;;15.00;99.90;;;;;;5037227;28;20293;-85
2022/06/19 08:26:54;;;;;;;0.10;0.10;;;15.10;99.90;;;;;;5056218;28;20179;-86
2022/06/19 08:29:19;;;;;;;0.10;0.10;;;15.10;99.90;;;;;;5051992;28;20460;-85
2022/06/19 08:31:45;;;;;;;0.10;0.10;;;15.10;99.90;;;;;;5052229;28;20413;-82
2022/06/19 08:34:11;;;;;;;0.10;0.10;;;15.10;99.90;;;;;;5052474;28;20175;-90
2022/06/19 08:36:37;;;;;;;0.10;0.10;;;15.20;99.90;;;;;;5052539;28;20850;-85
2022/06/19 08:39:06;;;;;;;0.10;0.10;;;15.00;99.90;;;;;;5045946;28;20611;-86
2022/06/19 08:41:46;;;;;;;0.10;0.10;;;14.90;99.90;;;;;;5063059;28;20239;-86
2022/06/19 08:44:48;;;;;;;0.10;0.10;;;14.90;99.90;;;;;;5063249;28;20481;-86
2022/06/19 08:47:48;;;;;;;0.10;0.10;;;14.80;99.90;;;;;;5050785;28;20424;-86
2022/06/19 08:50:35;;;;;;;0.10;0.10;;;14.70;99.90;;;;;;5043933;28;20433;-86
2022/06/19 08:53:19;;;;;;;0.10;0.10;;;14.70;99.90;;;;;;5044092;28;20514;-85
2022/06/19 08:55:59;;;;;;;0.10;0.10;;;14.60;99.90;;;;;;5057951;28;20452;-86
2022/06/19 08:58:40;;;;;;;0.10;0.10;;;14.60;99.90;;;;;;5044854;28;20436;-87
2022/06/19 09:01:24;;;;;;;0.10;0.10;;;14.70;99.90;;;;;;5033989;28;20468;-87
2022/06/19 09:07:07;;;;;;;0.10;0.10;;;15.00;99.90;;;;;;5055793;28;20468;-86
2022/06/19 09:09:52;;;;;;;0.10;0.10;;;14.90;99.90;;;;;;5048340;28;20459;-87
2022/06/19 09:12:38;;;;;;;0.10;0.10;;;15.10;99.90;;;;;;5050440;28;20486;-87
2022/06/19 09:15:16;;;;;;;0.10;0.10;;;15.00;99.90;;;;;;5040455;28;20459;-86
2022/06/19 09:18:02;;;;;;;0.10;0.10;;;15.20;99.90;;;;;;5049123;28;20564;-87
2022/06/19 09:20:37;;;;;;;0.10;0.10;;;15.30;99.90;;;;;;5032334;28;20888;-89
2022/06/19 09:23:19;;;;;;;0.10;0.10;;;15.30;99.90;;;;;;5043096;28;20441;-86
2022/06/19 09:25:53;;;;;;;0.10;0.10;;;15.40;99.90;;;;;;5047267;28;20778;-88
2022/06/19 09:28:43;;;;;;;0.10;0.10;;;15.60;99.90;;;;;;5043461;28;20440;-87
2022/06/19 09:31:18;;;;;;;0.10;0.10;;;15.60;99.90;;;;;;5040476;28;20479;-88
2022/06/19 09:34:38;;;;;;;0.10;0.10;;;15.80;99.90;;;;;;5040318;28;20441;-88
2022/06/19 09:37:17;;;;;;;0.10;0.10;;;15.90;99.90;;;;;;5017323;28;20512;-88
2022/06/19 09:40:06;;;;;;;0.10;0.10;;;16.00;99.90;;;;;;5044775;28;20452;-88
2022/06/19 09:43:22;;;;;;;0.10;0.10;;;16.00;99.90;;;;;;5042919;28;21359;-88
2022/06/19 09:45:57;;;;;;;0.10;0.10;;;15.80;99.90;;;;;;5038713;28;20501;-88
2022/06/19 09:48:35;;;;;;;0.10;0.10;;;15.80;99.90;;;;;;5040848;28;20448;-88
2022/06/19 09:51:14;;;;;;;0.10;0.10;;;15.60;99.90;;;;;;5039665;28;20495;-88
2022/06/19 09:53:51;;;;;;;0.10;0.10;;;15.80;99.90;;;;;;5048145;28;20859;-88
2022/06/19 09:56:23;;;;;;;0.10;0.10;;;15.60;99.90;;;;;;5057319;28;20575;-89
2022/06/19 09:58:54;;;;;;;0.10;0.10;;;15.80;99.90;;;;;;5037041;28;20460;-88
2022/06/19 10:01:21;;;;;;;0.10;0.10;;;15.70;99.90;;;;;;5052836;28;20992;-87
2022/06/19 10:04:11;;;;;;;0.10;0.10;;;15.70;99.90;;;;;;5040680;28;21039;-88
2022/06/19 10:06:43;;;;;;;0.10;0.10;;;15.70;99.90;;;;;;5033336;28;20870;-88
2022/06/19 10:09:33;;;;;;;0.10;0.10;;;15.70;99.90;;;;;;5037350;28;20434;-88
2022/06/19 10:12:02;;;;;;;0.10;0.10;;;15.80;99.90;;;;;;5042760;28;20850;-89
2022/06/19 10:14:43;;;;;;;0.10;0.10;;;15.80;99.90;;;;;;5033285;28;20542;-89
2022/06/19 10:17:25;;;;;;;0.10;0.10;;;15.80;99.90;;;;;;5038806;28;20504;-88
2022/06/19 10:20:15;;;;;;;0.10;0.10;;;15.90;99.90;;;;;;5042333;28;20452;-88
2022/06/19 10:22:52;;;;;;;0.10;0.10;;;15.90;99.90;;;;;;5033103;28;20448;-86
2022/06/19 10:25:33;;;;;;;0.10;0.10;;;16.00;99.90;;;;;;5047078;28;20542;-87
2022/06/19 10:28:33;;;;;;;0.10;0.10;;;16.10;99.90;;;;;;5043731;28;20611;-87
2022/06/19 10:31:19;;;;;;;0.10;0.10;;;16.00;99.90;;;;;;5036113;28;20442;-87
2022/06/19 10:34:12;;;;;;;0.10;0.10;;;15.90;99.90;;;;;;5048970;28;20438;-86
2022/06/19 10:36:50;;;;;;;0.10;0.10;;;16.00;99.90;;;;;;5053039;28;20479;-86
2022/06/19 10:39:41;;;;;;;0.10;0.10;;;16.00;99.90;;;;;;5047627;28;20505;-86
2022/06/19 10:42:23;;;;;;;0.10;0.10;;;15.90;99.90;;;;;;5050408;28;20432;-87
2022/06/19 10:45:22;;;;;;;0.10;0.10;;;15.90;99.90;;;;;;5034203;28;20484;-86
2022/06/19 10:48:08;;;;;;;0.10;0.10;;;15.80;99.90;;;;;;5040594;28;20452;-88
2022/06/19 10:51:07;;;;;;;0.10;0.10;;;15.70;99.90;;;;;;5051923;28;20474;-87
2022/06/19 10:54:00;;;;;;;0.10;0.10;;;15.70;99.90;;;;;;5046576;28;20937;-88
2022/06/19 10:56:28;;;;;;;0.10;0.10;;;15.60;99.90;;;;;;5047112;28;20502;-90
2022/06/19 10:58:55;;;;;;;0.10;0.10;;;15.50;99.90;;;;;;5045085;28;20437;-86
2022/06/19 11:04:14;;;;;;;0.10;0.10;;;15.60;99.90;;;;;;5051119;28;20487;-86
2022/06/19 11:06:54;;;;;;;0.10;0.10;;;15.70;99.90;;;;;;5052841;28;20479;-86
2022/06/19 11:09:38;;;;;;;0.10;0.10;;;15.70;99.90;;;;;;5047513;28;20456;-85
2022/06/19 11:12:31;;;;;;;0.10;0.10;;;15.80;99.90;;;;;;5053015;28;20441;-86
2022/06/19 11:14:59;;;;;;;0.10;0.10;;;15.70;99.90;;;;;;5049718;28;20970;-85
2022/06/19 11:17:37;;;;;;;0.10;0.10;;;15.60;99.90;;;;;;5045094;28;20958;-85
2022/06/19 11:20:26;;;;;;;0.10;0.10;;;15.70;99.90;;;;;;5043643;28;20446;-85
2022/06/19 11:23:07;;;;;;;0.10;0.10;;;15.60;99.90;;;;;;5036886;28;20971;-85
2022/06/19 11:25:39;;;;;;;0.10;0.10;;;15.60;99.90;;;;;;5044559;28;20442;-85
2022/06/19 11:28:14;;;;;;;0.10;0.10;;;15.60;99.90;;;;;;5047920;28;20980;-84
2022/06/19 11:30:47;;;;;;;0.10;0.10;;;15.50;99.90;;;;;;5050392;28;20452;-85
2022/06/19 11:33:16;;;;;;;0.10;0.10;;;15.50;99.90;;;;;;5052548;28;20445;-83
2022/06/19 11:35:57;;;;;;;0.10;0.10;;;15.50;99.90;;;;;;5063676;28;20490;-85
2022/06/19 11:38:36;;;;;;;0.10;0.10;;;15.50;99.90;;;;;;5052293;28;20431;-87
2022/06/19 11:41:34;;;;;;;0.10;0.10;;;15.60;99.90;;;;;;5059647;28;20437;-85
2022/06/19 11:44:05;;;;;;;0.10;0.10;;;15.60;99.90;;;;;;5042688;28;20477;-85
2022/06/19 11:46:31;;;;;;;0.10;0.10;;;15.80;99.90;;;;;;5057433;28;20526;-84
2022/06/19 11:49:40;;;;;;;0.10;0.10;;;15.90;99.90;;;;;;5062796;28;20549;-86
2022/06/19 11:52:25;;;;;;;0.10;0.10;;;15.90;99.90;;;;;;5053052;28;20412;-85
2022/06/19 11:54:51;;;;;;;0.10;0.10;;;16.00;99.90;;;;;;5052063;28;20791;-85
2022/06/19 11:57:29;;;;;;;0.10;0.10;;;15.80;99.90;;;;;;5047185;28;20444;-85
2022/06/19 11:59:57;;;;;;;0.10;0.10;;;15.60;99.90;;;;;;5045691;28;20517;-85
2022/06/19 12:02:38;;;;;;;0.10;0.10;;;15.50;99.90;;;;;;5040525;28;20536;-84
2022/06/19 12:05:21;;;;;;;0.10;0.10;;;15.10;99.90;;;;;;5036286;28;20507;-84
2022/06/19 12:07:46;;;;;;;0.10;0.10;;;15.20;99.90;;;;;;5056115;28;20468;-85
2022/06/19 12:10:20;;;;;;;0.10;0.10;;;15.10;99.90;;;;;;5049242;28;20987;-87
2022/06/19 12:12:57;;;;;;;0.10;0.10;;;15.00;99.90;;;;;;5052105;28;20174;-85
2022/06/19 12:15:29;;;;;;;0.10;0.10;;;15.00;99.90;;;;;;5040094;28;20453;-85
2022/06/19 12:18:12;;;;;;;0.10;0.10;;;14.90;99.90;;;;;;5046929;28;20449;-87
2022/06/19 12:20:38;;;;;;;0.10;0.10;;;14.90;99.90;;;;;;5043349;28;20449;-84
2022/06/19 12:23:09;;;;;;;0.10;0.10;;;14.90;99.90;;;;;;5052216;28;20516;-86
2022/06/19 12:26:00;;;;;;;0.10;0.10;;;14.90;99.90;;;;;;5041040;28;20844;-85
2022/06/19 12:28:41;;;;;;;0.10;0.10;;;14.90;99.90;;;;;;5050830;28;20438;-85
2022/06/19 12:31:12;;;;;;;0.10;0.10;;;14.90;99.90;;;;;;5041026;28;20449;-86
2022/06/19 12:33:50;;;;;;;0.10;0.10;;;14.80;99.90;;;;;;5047539;28;20993;-85
2022/06/19 12:36:19;;;;;;;0.10;0.10;;;14.80;99.90;;;;;;5032311;28;20441;-86
2022/06/19 12:38:45;;;;;;;0.10;0.10;;;14.80;99.90;;;;;;5049765;28;20545;-86
2022/06/19 12:41:13;;;;;;;0.10;0.10;;;14.70;99.90;;;;;;5040035;28;20449;-84
2022/06/19 12:43:58;;;;;;;0.10;0.10;;;14.70;99.90;;;;;;5047756;28;20492;-86
2022/06/19 12:46:54;;;;;;;0.10;0.10;;;14.70;99.90;;;;;;5039221;28;20465;-84
2022/06/19 12:49:38;;;;;;;0.10;0.10;;;14.60;99.90;;;;;;5051034;28;20524;-85
2022/06/19 12:52:37;;;;;;;0.10;0.10;;;14.60;99.90;;;;;;5048551;28;20476;-85
2022/06/19 12:55:23;;;;;;;0.10;0.10;;;14.60;99.90;;;;;;5042508;28;20909;-87
2022/06/19 12:58:16;;;;;;;0.10;0.10;;;14.70;99.90;;;;;;5048154;28;20542;-85
2022/06/19 13:00:52;;;;;;;0.10;0.10;;;14.70;99.90;;;;;;5045722;28;20508;-86
2022/06/19 13:03:29;;;;;;;0.10;0.10;;;14.60;99.90;;;;;;5046084;28;20515;-85
2022/06/19 13:06:27;;;;;;;0.10;0.10;;;14.70;99.90;;;;;;5047409;28;20534;-83
2022/06/19 13:08:55;;;;;;;0.10;0.10;;;14.70;99.90;;;;;;5048988;28;20576;-86
2022/06/19 13:11:50;;;;;;;0.10;0.10;;;14.80;99.90;;;;;;5043103;28;20447;-87
2022/06/19 13:14:44;;;;;;;0.10;0.10;;;14.70;99.90;;;;;;5047263;28;20494;-86
2022/06/19 13:17:21;;;;;;;0.10;0.10;;;14.80;99.90;;;;;;5046386;28;20425;-87
2022/06/19 13:20:13;;;;;;;0.10;0.10;;;14.90;99.90;;;;;;5047045;28;20440;-86
2022/06/19 13:22:45;;;;;;;0.10;0.10;;;14.80;99.90;;;;;;5067435;28;20423;-86